KTBN/TBN METAR and TAF weather

Enter ICAO airport designator
Station Type Date Time Source
KTBN METAR 2020/11/27 02:56 UTC NOAA

KTBN 270256Z AUTO 13007KT 10SM CLR 07/03 A3002 RMK AO2 SLP173 T00720025 50005


Station Type Date Time Source
KTBN Decoded METAR 2020/11/27 02:56 UTC NOAA

Fort Leonard Wood, MO, United States (KTBN) 37-44N 092-08W
Nov 26, 2020 - 09:56 PM EST / 2020.11.27 0256 UTC
Wind: from the SE (130 degrees) at 8 MPH (7 KT):0
Visibility: 10 mile(s):0
Sky conditions: clear
Temperature: 45.0 F (7.2 C)
Dew Point: 36.5 F (2.5 C)
Relative Humidity: 72%
Pressure (altimeter): 30.02 in. Hg (1016 hPa)
Pressure tendency: 0.01 inches (0.5 hPa) higher than three hours ago
ob: KTBN 270256Z AUTO 13007KT 10SM CLR 07/03 A3002 RMK AO2 SLP173 T00720025 50005
cycle: 3

Station Type Date Time Source
KTBN TAF UTC NOAA

Error!

Example: see airport list